CheckWX is a tool to help pilots better visualize weather data.  It is not intended as a substitute for an official pre-flight weather briefing.

08:07:47 UTC

KSRC METAR
Searcy Municipal Airport
Searcy, Arkansas, USA
Current

1 hour ago

KSRC 240656Z AUTO 13007KT 3SM -RA OVC004 08/ A2990 RMK AO2 SLP125 P0011 T0083
Observed
Feb-24 @ 06:56 UTC
Wind
  • 130° at 7 KTS
Visibility
3 SM
Flight Rules
LIFR
Conditions
Light Rain
Cloud Levels
  • Overcast at 400' AGL
Temperature
C / 46°F
Altimeter
29.9" Hg
Pressure
1012.52 hPa
Current Rain
0.11"
Previous

1 hour ago

KSRC 240648Z AUTO 13009KT 2 1/2SM -RA BR OVC004 08/08 A2991 RMK AO2 P0011
Observed
Feb-24 @ 06:48 UTC
Wind
  • 130° at 9 KTS
Visibility
2 1/2 SM
Flight Rules
LIFR
Conditions
Light Rain, Mist
Cloud Levels
  • Overcast at 400' AGL
Temperature
C / 46°F
Dewpoint
C / 46°F
Humidity
100%
Altimeter
29.91" Hg
Pressure
1012.92 hPa
Current Rain
0.11"
Previous

2 hours ago

KSRC 240556Z AUTO 14007KT 4SM RA BR OVC004 08/08 A2993 RMK AO2 SLP135 P0005 60008 T00830083 10083 20072 401060050 58030
Observed
Feb-24 @ 05:56 UTC
Wind
  • 140° at 7 KTS
Visibility
4 SM
Flight Rules
LIFR
Conditions
Rain, Mist
Cloud Levels
  • Overcast at 400' AGL
Temperature
C / 46°F
Dewpoint
C / 46°F
Humidity
100%
Altimeter
29.93" Hg
Pressure
1013.52 hPa
Current Rain
0.05"